Time;durP1;ratioP1;P1;durP2;ratioP2;P2;SDS_P1;SDS_P2;PMS_P1;PMS_P2;Temp;Humidity;BMP_temperature;BMP_pressure;BME280_temperature;BME280_humidity;BME280_pressure;Samples;Min_cycle;Max_cycle;Signal;HPM_P1;HPM_P2
2023/06/22 00:00:11;;;;;;;8.90;4.60;;;;;;;;;;107054;1251;61235;-81
2023/06/22 00:02:58;;;;;;;8.90;5.40;;;;;;;;;;107422;1251;61906;-82
2023/06/22 00:05:24;;;;;;;10.00;5.80;;;;;;;;;;109217;1251;61256;-81
2023/06/22 00:07:51;;;;;;;7.50;5.10;;;;;;;;;;107019;1254;59552;-81
2023/06/22 00:10:17;;;;;;;10.30;4.70;;;;;;;;;;107085;1251;61125;-82
2023/06/22 00:12:44;;;;;;;6.90;4.90;;;;;;;;;;107018;1251;61256;-81
2023/06/22 00:15:10;;;;;;;7.60;5.30;;;;;;;;;;106989;1251;61269;-81
2023/06/22 00:17:37;;;;;;;13.00;4.80;;;;;;;;;;107050;1251;61350;-80
2023/06/22 00:20:05;;;;;;;8.60;5.80;;;;;;;;;;107107;1251;62186;-81
2023/06/22 00:22:38;;;;;;;;;;;;;;;;;;107072;1251;61213;-81
2023/06/22 00:25:07;;;;;;;7.70;4.70;;;;;;;;;;107127;1251;61338;-81
2023/06/22 00:27:34;;;;;;;6.00;4.70;;;;;;;;;;107004;1251;61145;-81
2023/06/22 00:30:00;;;;;;;8.00;5.90;;;;;;;;;;107136;1254;61324;-81
2023/06/22 00:32:27;;;;;;;7.40;5.30;;;;;;;;;;107010;1251;61233;-81
2023/06/22 00:34:53;;;;;;;11.20;5.00;;;;;;;;;;106802;1251;61334;-81
2023/06/22 00:37:21;;;;;;;11.10;5.60;;;;;;;;;;107147;1251;61328;-81
2023/06/22 00:39:48;;;;;;;7.10;5.00;;;;;;;;;;107098;1251;61317;-81
2023/06/22 00:42:14;;;;;;;12.30;5.20;;;;;;;;;;107012;1251;61295;-81
2023/06/22 00:44:41;;;;;;;12.10;5.40;;;;;;;;;;107105;1256;61267;-81
2023/06/22 00:47:07;;;;;;;8.50;5.70;;;;;;;;;;107038;1251;61255;-81
2023/06/22 00:49:33;;;;;;;8.20;5.00;;;;;;;;;;107019;1251;61226;-81
2023/06/22 00:52:00;;;;;;;8.70;5.60;;;;;;;;;;107086;1251;61330;-81
2023/06/22 00:54:26;;;;;;;9.10;6.00;;;;;;;;;;107073;1254;61310;-81
2023/06/22 00:56:54;;;;;;;10.30;5.90;;;;;;;;;;107089;1254;61342;-81
2023/06/22 00:59:20;;;;;;;12.70;6.00;;;;;;;;;;107104;1254;61915;-81
2023/06/22 01:01:47;;;;;;;7.00;5.30;;;;;;;;;;107090;1251;63362;-81
2023/06/22 01:04:13;;;;;;;7.80;5.20;;;;;;;;;;106993;1251;61349;-81
2023/06/22 01:06:41;;;;;;;6.60;4.90;;;;;;;;;;107085;1254;61225;-81
2023/06/22 01:09:19;;;;;;;12.40;5.30;;;;;;;;;;107009;1251;62435;-82
2023/06/22 01:11:45;;;;;;;7.30;5.30;;;;;;;;;;107035;1254;62591;-81
2023/06/22 01:14:15;;;;;;;6.20;5.10;;;;;;;;;;107082;1251;61259;-81
2023/06/22 01:16:43;;;;;;;11.60;5.10;;;;;;;;;;107072;1251;61241;-81
2023/06/22 01:19:24;;;;;;;8.80;5.70;;;;;;;;;;107069;1251;61204;-81
2023/06/22 01:21:50;;;;;;;8.50;6.20;;;;;;;;;;107074;1251;61272;-81
2023/06/22 01:24:24;;;;;;;9.30;6.60;;;;;;;;;;107104;1251;61246;-81
2023/06/22 01:26:56;;;;;;;10.60;5.50;;;;;;;;;;107121;1251;61209;-81
2023/06/22 01:29:23;;;;;;;10.20;6.90;;;;;;;;;;107064;1251;61218;-81
2023/06/22 01:31:49;;;;;;;11.00;6.60;;;;;;;;;;107081;1251;61356;-81
2023/06/22 01:34:15;;;;;;;10.10;5.90;;;;;;;;;;107051;1251;61206;-81
2023/06/22 01:36:42;;;;;;;12.90;6.00;;;;;;;;;;106994;1251;61363;-81
2023/06/22 01:39:08;;;;;;;8.80;5.90;;;;;;;;;;107031;1255;61266;-80
2023/06/22 01:41:35;;;;;;;11.20;6.40;;;;;;;;;;106987;1252;61259;-81
2023/06/22 01:44:02;;;;;;;13.60;6.20;;;;;;;;;;107041;1251;61358;-81
2023/06/22 01:46:29;;;;;;;7.30;6.00;;;;;;;;;;107043;1251;61241;-81
2023/06/22 01:48:55;;;;;;;8.30;6.00;;;;;;;;;;107051;1251;61279;-81
2023/06/22 01:51:21;;;;;;;10.20;6.60;;;;;;;;;;107051;1251;61168;-81
2023/06/22 01:53:48;;;;;;;12.30;6.00;;;;;;;;;;107052;1251;61346;-81
2023/06/22 01:56:16;;;;;;;7.20;5.90;;;;;;;;;;107027;1254;61326;-81
2023/06/22 01:58:46;;;;;;;9.70;5.50;;;;;;;;;;107033;1251;60253;-81
2023/06/22 02:01:12;;;;;;;10.20;5.20;;;;;;;;;;107099;1254;61860;-81
2023/06/22 02:03:42;;;;;;;12.50;6.40;;;;;;;;;;107031;1250;61005;-80
2023/06/22 02:06:22;;;;;;;8.70;5.90;;;;;;;;;;107049;1251;61277;-81
2023/06/22 02:08:50;;;;;;;9.10;5.90;;;;;;;;;;107072;1251;61362;-81
2023/06/22 02:11:17;;;;;;;7.80;5.80;;;;;;;;;;107100;1251;61074;-81
2023/06/22 02:13:43;;;;;;;11.90;5.90;;;;;;;;;;107037;1254;62327;-81
2023/06/22 02:16:13;;;;;;;11.70;6.00;;;;;;;;;;107089;1251;61303;-80
2023/06/22 02:18:45;;;;;;;10.00;5.80;;;;;;;;;;107113;1251;61276;-81
2023/06/22 02:21:11;;;;;;;9.20;6.00;;;;;;;;;;107075;1251;61270;-81
2023/06/22 02:23:38;;;;;;;9.10;5.70;;;;;;;;;;107073;1254;61321;-81
2023/06/22 02:26:04;;;;;;;12.60;8.00;;;;;;;;;;107069;1251;61274;-81
2023/06/22 02:28:30;;;;;;;16.50;8.40;;;;;;;;;;107049;1251;61239;-81
2023/06/22 02:30:57;;;;;;;11.30;8.80;;;;;;;;;;107062;1251;59895;-81
2023/06/22 02:33:23;;;;;;;8.60;6.20;;;;;;;;;;107748;1251;61217;-81
2023/06/22 02:35:50;;;;;;;11.50;6.80;;;;;;;;;;109488;1251;58908;-82
2023/06/22 02:38:17;;;;;;;9.90;6.50;;;;;;;;;;109490;1251;59516;-81
2023/06/22 02:40:44;;;;;;;9.90;6.20;;;;;;;;;;109484;1251;59024;-81
2023/06/22 02:43:10;;;;;;;10.70;5.80;;;;;;;;;;109501;1251;59808;-82
2023/06/22 02:45:36;;;;;;;10.20;5.10;;;;;;;;;;107325;1251;61852;-81
2023/06/22 02:48:03;;;;;;;8.70;6.40;;;;;;;;;;107053;1251;61274;-81
2023/06/22 02:50:29;;;;;;;12.40;6.40;;;;;;;;;;107041;1251;61045;-80
2023/06/22 02:52:56;;;;;;;11.30;6.90;;;;;;;;;;107154;1251;59638;-82
2023/06/22 02:55:23;;;;;;;10.10;6.80;;;;;;;;;;107071;1251;61224;-81
2023/06/22 02:57:52;;;;;;;11.10;6.80;;;;;;;;;;107076;1251;61123;-81
2023/06/22 03:00:19;;;;;;;8.00;5.70;;;;;;;;;;107090;1251;61215;-81
2023/06/22 03:02:46;;;;;;;13.30;6.70;;;;;;;;;;107134;1254;62975;-80
2023/06/22 03:05:17;;;;;;;9.40;6.30;;;;;;;;;;107101;1251;61275;-81
2023/06/22 03:07:44;;;;;;;11.10;6.60;;;;;;;;;;107126;1251;61245;-81
2023/06/22 03:10:11;;;;;;;12.10;7.20;;;;;;;;;;107064;1251;61372;-81
2023/06/22 03:12:37;;;;;;;11.20;6.40;;;;;;;;;;107152;1250;61221;-81
2023/06/22 03:15:05;;;;;;;12.40;7.40;;;;;;;;;;107103;1251;61239;-81
2023/06/22 03:17:31;;;;;;;13.30;8.70;;;;;;;;;;107023;1250;61288;-80
2023/06/22 03:19:58;;;;;;;13.10;9.00;;;;;;;;;;107064;1251;62278;-81
2023/06/22 03:22:24;;;;;;;15.10;8.50;;;;;;;;;;107080;1251;61335;-80
2023/06/22 03:24:50;;;;;;;15.50;8.20;;;;;;;;;;107005;1254;61396;-81
2023/06/22 03:27:18;;;;;;;20.50;8.30;;;;;;;;;;107061;1251;61337;-80
2023/06/22 03:29:44;;;;;;;14.30;8.70;;;;;;;;;;107947;1251;61269;-81
2023/06/22 03:32:11;;;;;;;13.70;8.80;;;;;;;;;;106966;1251;61129;-81
2023/06/22 03:34:37;;;;;;;13.10;8.20;;;;;;;;;;107058;1252;61183;-81
2023/06/22 03:37:04;;;;;;;23.30;8.90;;;;;;;;;;107061;1251;61363;-81
2023/06/22 03:39:31;;;;;;;14.00;9.10;;;;;;;;;;106986;1251;62138;-80
2023/06/22 03:41:57;;;;;;;13.00;8.60;;;;;;;;;;107045;1251;61353;-80
2023/06/22 03:44:23;;;;;;;19.10;9.30;;;;;;;;;;107056;1251;61257;-81
2023/06/22 03:46:50;;;;;;;13.40;6.40;;;;;;;;;;107097;1255;59126;-81
2023/06/22 03:49:16;;;;;;;14.30;9.60;;;;;;;;;;107016;1251;61354;-81
2023/06/22 03:51:43;;;;;;;12.80;7.40;;;;;;;;;;107202;1251;61329;-81
2023/06/22 03:54:09;;;;;;;14.00;7.00;;;;;;;;;;107071;1251;61263;-81
2023/06/22 03:56:36;;;;;;;10.70;6.10;;;;;;;;;;107036;1254;61901;-80
2023/06/22 03:59:02;;;;;;;13.40;7.20;;;;;;;;;;107026;1251;61469;-80
2023/06/22 04:01:28;;;;;;;12.10;6.90;;;;;;;;;;107088;1252;61379;-80
2023/06/22 04:03:54;;;;;;;15.40;7.50;;;;;;;;;;107077;1254;61220;-80
2023/06/22 04:06:22;;;;;;;13.30;7.10;;;;;;;;;;107067;1253;61283;-81
2023/06/22 04:08:50;;;;;;;9.20;7.30;;;;;;;;;;107039;1254;61224;-80
2023/06/22 04:11:18;;;;;;;11.60;6.40;;;;;;;;;;107248;1250;59237;-81
2023/06/22 04:13:44;;;;;;;12.10;7.50;;;;;;;;;;107069;1250;62214;-80
2023/06/22 04:16:10;;;;;;;11.10;7.40;;;;;;;;;;107085;1251;61244;-81
2023/06/22 04:18:37;;;;;;;10.90;6.90;;;;;;;;;;107112;1250;61257;-81
2023/06/22 04:21:04;;;;;;;11.10;6.70;;;;;;;;;;107071;1250;61098;-80
2023/06/22 04:23:30;;;;;;;16.00;7.10;;;;;;;;;;107039;1251;62537;-81
2023/06/22 04:25:57;;;;;;;10.20;7.10;;;;;;;;;;107060;1251;61308;-80
2023/06/22 04:28:24;;;;;;;11.10;6.10;;;;;;;;;;107029;1251;61831;-81
2023/06/22 04:30:51;;;;;;;10.90;6.50;;;;;;;;;;107043;1251;61177;-81
2023/06/22 04:33:17;;;;;;;10.60;6.20;;;;;;;;;;107024;1254;61250;-81
2023/06/22 04:35:47;;;;;;;8.70;6.40;;;;;;;;;;107047;1251;61323;-81
2023/06/22 04:38:13;;;;;;;9.70;6.10;;;;;;;;;;107068;1250;59336;-80
2023/06/22 04:40:40;;;;;;;10.70;6.20;;;;;;;;;;107204;1251;61264;-82
2023/06/22 04:43:06;;;;;;;11.40;6.80;;;;;;;;;;107059;1251;61127;-81
2023/06/22 04:45:33;;;;;;;13.40;6.70;;;;;;;;;;107011;1250;61344;-82
2023/06/22 04:47:59;;;;;;;10.90;7.10;;;;;;;;;;107107;1250;61332;-81
2023/06/22 04:50:25;;;;;;;12.90;7.60;;;;;;;;;;107003;1251;61161;-82
2023/06/22 04:52:52;;;;;;;11.10;7.30;;;;;;;;;;107031;1251;61278;-81
2023/06/22 04:55:19;;;;;;;12.80;8.00;;;;;;;;;;107019;1252;61776;-82
2023/06/22 04:57:49;;;;;;;14.40;7.90;;;;;;;;;;107002;1255;61325;-81
2023/06/22 05:00:17;;;;;;;10.40;8.50;;;;;;;;;;107122;1252;61359;-82
2023/06/22 05:02:44;;;;;;;9.50;6.70;;;;;;;;;;107727;1250;61264;-81
2023/06/22 05:05:13;;;;;;;11.40;6.60;;;;;;;;;;107147;1251;62777;-81
2023/06/22 05:07:43;;;;;;;10.00;5.90;;;;;;;;;;107065;1254;61405;-82
2023/06/22 05:10:10;;;;;;;13.30;7.20;;;;;;;;;;107029;1252;63583;-82
2023/06/22 05:12:37;;;;;;;12.30;6.50;;;;;;;;;;107695;1251;61323;-81
2023/06/22 05:15:04;;;;;;;9.60;6.60;;;;;;;;;;107056;1251;61102;-81
2023/06/22 05:17:31;;;;;;;9.60;5.70;;;;;;;;;;107088;1251;61957;-82
2023/06/22 05:19:57;;;;;;;12.50;7.20;;;;;;;;;;107027;1251;61354;-81
2023/06/22 05:22:23;;;;;;;11.10;7.20;;;;;;;;;;107149;1254;61212;-81
2023/06/22 05:24:50;;;;;;;11.60;7.50;;;;;;;;;;107075;1251;61346;-81
2023/06/22 05:27:16;;;;;;;11.10;6.60;;;;;;;;;;107128;1251;61267;-82
2023/06/22 05:29:43;;;;;;;10.10;6.20;;;;;;;;;;107167;1251;61304;-81
2023/06/22 05:32:10;;;;;;;13.80;6.80;;;;;;;;;;107183;1251;62214;-81
2023/06/22 05:34:36;;;;;;;7.90;6.60;;;;;;;;;;107023;1250;61278;-82
2023/06/22 05:37:02;;;;;;;10.70;6.10;;;;;;;;;;107037;1251;61269;-82
2023/06/22 05:39:29;;;;;;;14.20;6.30;;;;;;;;;;107115;1251;61221;-81
2023/06/22 05:41:55;;;;;;;14.50;7.30;;;;;;;;;;107141;1251;61285;-81
2023/06/22 05:44:22;;;;;;;8.30;6.40;;;;;;;;;;107106;1251;61231;-82
2023/06/22 05:46:48;;;;;;;10.00;5.90;;;;;;;;;;107379;1251;61072;-81
2023/06/22 05:49:14;;;;;;;9.40;5.80;;;;;;;;;;107462;1254;61331;-82
2023/06/22 05:51:41;;;;;;;13.80;6.50;;;;;;;;;;107414;1251;61083;-82
2023/06/22 05:54:13;;;;;;;8.70;5.80;;;;;;;;;;108036;1249;59534;-81
2023/06/22 05:56:39;;;;;;;12.20;6.40;;;;;;;;;;107378;1251;61083;-82
2023/06/22 05:59:05;;;;;;;8.00;5.90;;;;;;;;;;107414;1251;61015;-81
2023/06/22 06:01:35;;;;;;;11.10;5.70;;;;;;;;;;107319;1250;61238;-82
2023/06/22 06:04:05;;;;;;;7.00;4.40;;;;;;;;;;107432;1250;61235;-81
2023/06/22 06:06:31;;;;;;;6.70;4.80;;;;;;;;;;107311;1251;62832;-82
2023/06/22 06:08:58;;;;;;;8.70;5.90;;;;;;;;;;107459;1251;61273;-81
2023/06/22 06:11:25;;;;;;;15.30;6.00;;;;;;;;;;107473;1250;61178;-82
2023/06/22 06:13:51;;;;;;;11.10;6.70;;;;;;;;;;107398;1251;61344;-82
2023/06/22 06:16:17;;;;;;;9.60;6.50;;;;;;;;;;107431;1251;62331;-82
2023/06/22 06:18:44;;;;;;;9.90;5.70;;;;;;;;;;107640;1250;59438;-81
2023/06/22 06:21:10;;;;;;;8.40;5.70;;;;;;;;;;107732;1251;59348;-82
2023/06/22 06:23:36;;;;;;;11.10;5.80;;;;;;;;;;107564;1254;61892;-82
2023/06/22 06:26:07;;;;;;;9.20;6.50;;;;;;;;;;107325;1251;59583;-83
2023/06/22 06:28:33;;;;;;;10.30;5.70;;;;;;;;;;107654;1251;61061;-83
2023/06/22 06:31:00;;;;;;;11.50;5.80;;;;;;;;;;107715;1250;61273;-82
2023/06/22 06:33:26;;;;;;;13.60;6.40;;;;;;;;;;107416;1251;61167;-82
2023/06/22 06:35:52;;;;;;;8.70;5.70;;;;;;;;;;107315;1251;62143;-83
2023/06/22 06:38:19;;;;;;;9.30;5.60;;;;;;;;;;107380;1254;61231;-82
2023/06/22 06:40:45;;;;;;;10.30;5.30;;;;;;;;;;107649;1251;61353;-82
2023/06/22 06:43:11;;;;;;;8.00;5.40;;;;;;;;;;107628;1251;59356;-82
2023/06/22 06:45:38;;;;;;;12.40;5.80;;;;;;;;;;107658;1251;59845;-81
2023/06/22 06:48:04;;;;;;;7.40;5.80;;;;;;;;;;107544;1251;61278;-82
2023/06/22 06:50:31;;;;;;;12.50;5.50;;;;;;;;;;107383;1250;61309;-82
2023/06/22 06:52:58;;;;;;;15.00;6.10;;;;;;;;;;107432;1251;59428;-82
2023/06/22 06:55:25;;;;;;;9.80;6.60;;;;;;;;;;107338;1250;61998;-83
2023/06/22 06:57:52;;;;;;;9.40;6.40;;;;;;;;;;107404;1251;59795;-82
2023/06/22 07:00:19;;;;;;;9.80;6.30;;;;;;;;;;107194;1254;61263;-83
2023/06/22 07:02:47;;;;;;;9.90;6.30;;;;;;;;;;107185;1251;61136;-82
2023/06/22 07:05:13;;;;;;;12.90;7.10;;;;;;;;;;107353;1253;61216;-83
2023/06/22 07:07:41;;;;;;;11.40;6.70;;;;;;;;;;107050;1256;214448;-82
2023/06/22 07:10:07;;;;;;;11.70;6.90;;;;;;;;;;107387;1253;61374;-82
2023/06/22 07:12:34;;;;;;;15.20;7.90;;;;;;;;;;107255;1253;59531;-82
2023/06/22 07:15:04;;;;;;;12.70;7.20;;;;;;;;;;107247;1251;61196;-82
2023/06/22 07:17:30;;;;;;;15.60;7.60;;;;;;;;;;107268;1251;61168;-83
2023/06/22 07:19:57;;;;;;;12.40;7.50;;;;;;;;;;107328;1251;61954;-83
2023/06/22 07:22:23;;;;;;;14.00;7.30;;;;;;;;;;107311;1251;61201;-82
2023/06/22 07:24:49;;;;;;;11.10;7.80;;;;;;;;;;107253;1251;61354;-81
2023/06/22 07:27:19;;;;;;;13.60;7.50;;;;;;;;;;107382;1250;61260;-82
2023/06/22 07:29:45;;;;;;;15.20;7.60;;;;;;;;;;107338;1251;61245;-83
2023/06/22 07:32:12;;;;;;;11.60;8.00;;;;;;;;;;107301;1251;59407;-82
2023/06/22 07:34:38;;;;;;;12.60;7.90;;;;;;;;;;107247;1252;59576;-83
2023/06/22 07:37:05;;;;;;;11.90;7.70;;;;;;;;;;107348;1251;61158;-82
2023/06/22 07:39:31;;;;;;;12.80;7.90;;;;;;;;;;107297;1251;61244;-82
2023/06/22 07:41:58;;;;;;;12.00;8.00;;;;;;;;;;107286;1254;61375;-83
2023/06/22 07:44:24;;;;;;;18.00;9.50;;;;;;;;;;107304;1251;61300;-82
2023/06/22 07:46:50;;;;;;;9.90;8.00;;;;;;;;;;107390;1253;61033;-83
2023/06/22 07:49:17;;;;;;;15.10;8.20;;;;;;;;;;107250;1250;61337;-82
2023/06/22 07:51:43;;;;;;;12.90;9.00;;;;;;;;;;107160;1250;61311;-84
2023/06/22 07:54:10;;;;;;;16.10;8.70;;;;;;;;;;107153;1251;61215;-83
2023/06/22 07:56:36;;;;;;;13.00;9.40;;;;;;;;;;107253;1251;61248;-83
2023/06/22 07:59:03;;;;;;;16.30;9.40;;;;;;;;;;107297;1250;61238;-82
2023/06/22 08:01:30;;;;;;;10.20;8.50;;;;;;;;;;107304;1251;61306;-84
2023/06/22 08:03:56;;;;;;;11.50;8.70;;;;;;;;;;107254;1254;62508;-82
2023/06/22 08:06:22;;;;;;;14.50;11.00;;;;;;;;;;107215;1251;61251;-82
2023/06/22 08:08:49;;;;;;;14.40;12.00;;;;;;;;;;107328;1250;61806;-82
2023/06/22 08:11:16;;;;;;;17.90;12.70;;;;;;;;;;107203;1251;61189;-84
2023/06/22 08:13:42;;;;;;;17.60;11.80;;;;;;;;;;107189;1251;61338;-82
2023/06/22 08:16:09;;;;;;;19.90;13.20;;;;;;;;;;107277;1251;61356;-83
2023/06/22 08:18:35;;;;;;;19.40;12.80;;;;;;;;;;107370;1251;61344;-83
2023/06/22 08:21:02;;;;;;;20.40;16.90;;;;;;;;;;107317;1250;61074;-83
2023/06/22 08:23:29;;;;;;;16.40;14.10;;;;;;;;;;107189;1252;61198;-83
2023/06/22 08:25:56;;;;;;;21.40;14.00;;;;;;;;;;107276;1251;59899;-82
2023/06/22 08:28:22;;;;;;;23.90;15.20;;;;;;;;;;107391;1251;61249;-82
2023/06/22 08:30:48;;;;;;;16.00;12.90;;;;;;;;;;107311;1251;61113;-82
2023/06/22 08:33:15;;;;;;;18.10;13.50;;;;;;;;;;107315;1250;59535;-82
2023/06/22 08:35:41;;;;;;;18.90;12.80;;;;;;;;;;107344;1250;61244;-84
2023/06/22 08:38:08;;;;;;;18.20;12.70;;;;;;;;;;107407;1251;59220;-84
2023/06/22 08:40:35;;;;;;;18.00;13.40;;;;;;;;;;107310;1251;61505;-82
2023/06/22 08:43:01;;;;;;;16.30;13.00;;;;;;;;;;107093;1251;61176;-83
2023/06/22 08:45:28;;;;;;;15.50;13.10;;;;;;;;;;107164;1251;59602;-82
2023/06/22 08:47:54;;;;;;;20.40;13.20;;;;;;;;;;107222;1251;61221;-84
2023/06/22 08:50:21;;;;;;;21.40;14.40;;;;;;;;;;107162;1252;61245;-83
2023/06/22 08:52:48;;;;;;;18.00;14.00;;;;;;;;;;107336;1250;61274;-83
2023/06/22 08:55:14;;;;;;;19.50;14.50;;;;;;;;;;107307;1253;61197;-82
2023/06/22 08:57:42;;;;;;;19.60;13.90;;;;;;;;;;107226;1251;61900;-83
2023/06/22 09:00:15;;;;;;;;;;;;;;;;;;107233;1251;61205;-83
2023/06/22 09:02:42;;;;;;;17.30;13.70;;;;;;;;;;107372;1251;59941;-84
2023/06/22 09:05:09;;;;;;;14.30;12.90;;;;;;;;;;107130;1251;61169;-83
2023/06/22 09:07:35;;;;;;;17.10;13.90;;;;;;;;;;107302;1254;60125;-83
2023/06/22 09:10:04;;;;;;;16.10;13.90;;;;;;;;;;107345;1250;60151;-83
2023/06/22 09:12:32;;;;;;;18.20;14.30;;;;;;;;;;107279;1253;60992;-83
2023/06/22 09:15:00;;;;;;;17.10;13.70;;;;;;;;;;107125;1255;59704;-83
2023/06/22 09:17:27;;;;;;;20.40;12.70;;;;;;;;;;107334;1251;59582;-83
2023/06/22 09:19:53;;;;;;;15.10;13.40;;;;;;;;;;107207;1253;61295;-83
2023/06/22 09:22:19;;;;;;;15.00;13.50;;;;;;;;;;107304;1251;60874;-83
2023/06/22 09:24:46;;;;;;;17.60;13.70;;;;;;;;;;107270;1251;61209;-83
2023/06/22 09:27:12;;;;;;;16.70;13.20;;;;;;;;;;107313;1251;59821;-83
2023/06/22 09:29:39;;;;;;;12.70;11.40;;;;;;;;;;107387;1254;61168;-84
2023/06/22 09:32:05;;;;;;;14.80;13.10;;;;;;;;;;108173;1251;61148;-84
2023/06/22 09:34:32;;;;;;;16.70;13.70;;;;;;;;;;108417;1251;61467;-84
2023/06/22 09:37:00;;;;;;;15.50;12.10;;;;;;;;;;107582;1251;59901;-84
2023/06/22 09:39:26;;;;;;;14.50;12.00;;;;;;;;;;107384;1253;61267;-84
2023/06/22 09:41:53;;;;;;;13.80;11.90;;;;;;;;;;107336;1251;61218;-83
2023/06/22 09:44:19;;;;;;;17.10;11.60;;;;;;;;;;107187;1251;62422;-84
2023/06/22 09:46:46;;;;;;;13.00;11.80;;;;;;;;;;107286;1251;62416;-84
2023/06/22 09:49:12;;;;;;;13.50;12.10;;;;;;;;;;107263;1251;61152;-83
2023/06/22 09:51:38;;;;;;;13.60;11.10;;;;;;;;;;107362;1251;62431;-84
2023/06/22 09:54:05;;;;;;;12.50;11.20;;;;;;;;;;107294;1254;61330;-83
2023/06/22 09:56:31;;;;;;;15.50;11.10;;;;;;;;;;107326;1251;59425;-84
2023/06/22 09:58:57;;;;;;;14.10;11.40;;;;;;;;;;107413;1250;61353;-83
2023/06/22 10:01:24;;;;;;;12.60;11.40;;;;;;;;;;107364;1251;61397;-84
2023/06/22 10:03:54;;;;;;;13.90;10.70;;;;;;;;;;107325;1253;61212;-84
2023/06/22 10:06:20;;;;;;;11.30;10.10;;;;;;;;;;109626;1249;58931;-84
2023/06/22 10:08:48;;;;;;;11.60;10.40;;;;;;;;;;109622;1251;58890;-84
2023/06/22 10:11:14;;;;;;;;;;;;;;;;;;109609;1251;60687;-84
2023/06/22 10:13:40;;;;;;;14.20;10.60;;;;;;;;;;109593;1251;58951;-84
2023/06/22 10:16:07;;;;;;;13.40;10.70;;;;;;;;;;109572;1251;58951;-84
2023/06/22 10:18:33;;;;;;;10.90;8.70;;;;;;;;;;109576;1250;58970;-85
2023/06/22 10:20:59;;;;;;;11.80;8.10;;;;;;;;;;109642;1251;58951;-85
2023/06/22 10:23:26;;;;;;;12.00;10.30;;;;;;;;;;109649;1250;58905;-84
2023/06/22 10:25:52;;;;;;;10.20;9.20;;;;;;;;;;109603;1250;59402;-85
2023/06/22 10:28:19;;;;;;;11.50;10.30;;;;;;;;;;109539;1251;59252;-83
2023/06/22 10:30:45;;;;;;;10.40;8.90;;;;;;;;;;109598;1251;59148;-84
2023/06/22 10:33:11;;;;;;;11.00;9.40;;;;;;;;;;109558;1251;58858;-83
2023/06/22 10:35:38;;;;;;;10.30;9.20;;;;;;;;;;109287;1251;59568;-85
2023/06/22 10:38:05;;;;;;;9.80;8.80;;;;;;;;;;107343;1250;61261;-83
2023/06/22 10:40:31;;;;;;;10.00;9.00;;;;;;;;;;107405;1251;61248;-84
2023/06/22 10:42:58;;;;;;;11.80;8.50;;;;;;;;;;107335;1251;59943;-83
2023/06/22 10:45:24;;;;;;;12.90;8.10;;;;;;;;;;107154;1254;61609;-83
2023/06/22 10:47:50;;;;;;;8.60;7.80;;;;;;;;;;107327;1251;61363;-85
2023/06/22 10:50:17;;;;;;;8.60;6.90;;;;;;;;;;107460;1253;61211;-84
2023/06/22 10:52:43;;;;;;;11.90;8.90;;;;;;;;;;107453;1249;61280;-84
2023/06/22 10:55:10;;;;;;;10.30;8.20;;;;;;;;;;107320;1251;61153;-83
2023/06/22 10:57:38;;;;;;;10.10;9.10;;;;;;;;;;107395;1252;61116;-84
2023/06/22 11:00:06;;;;;;;12.70;10.70;;;;;;;;;;109568;1250;62120;-84
2023/06/22 11:02:32;;;;;;;9.90;7.80;;;;;;;;;;109622;1251;58895;-85
2023/06/22 11:05:00;;;;;;;9.10;8.10;;;;;;;;;;109586;1250;58976;-85
2023/06/22 11:07:28;;;;;;;9.30;7.80;;;;;;;;;;109621;1252;59172;-85
2023/06/22 11:09:55;;;;;;;9.90;7.80;;;;;;;;;;109624;1249;58784;-83
2023/06/22 11:12:21;;;;;;;9.30;8.20;;;;;;;;;;108026;1253;61092;-84
2023/06/22 11:14:50;;;;;;;11.50;8.90;;;;;;;;;;107230;1253;61421;-83
2023/06/22 11:17:16;;;;;;;10.30;8.60;;;;;;;;;;107308;1251;60646;-84
2023/06/22 11:19:43;;;;;;;9.70;8.20;;;;;;;;;;107290;1251;61292;-84
2023/06/22 11:22:09;;;;;;;9.70;8.50;;;;;;;;;;107015;1251;63221;-83
2023/06/22 11:24:36;;;;;;;9.60;8.70;;;;;;;;;;107205;1253;61164;-84
2023/06/22 11:27:02;;;;;;;9.90;8.90;;;;;;;;;;107194;1251;61234;-84
2023/06/22 11:29:29;;;;;;;10.20;9.20;;;;;;;;;;107117;1249;61162;-84
2023/06/22 11:31:55;;;;;;;9.20;8.40;;;;;;;;;;107189;1253;61227;-84
2023/06/22 11:34:21;;;;;;;8.90;8.00;;;;;;;;;;106924;1251;61344;-83
2023/06/22 11:36:48;;;;;;;10.30;8.20;;;;;;;;;;107051;1253;62112;-84
2023/06/22 11:39:14;;;;;;;9.90;8.50;;;;;;;;;;107050;1253;61333;-84
2023/06/22 11:41:41;;;;;;;11.80;7.80;;;;;;;;;;107076;1253;61200;-84
2023/06/22 11:44:08;;;;;;;;;;;;;;;;;;106850;1255;62664;-84
2023/06/22 11:46:34;;;;;;;9.40;8.40;;;;;;;;;;107048;1255;61157;-84
2023/06/22 11:49:01;;;;;;;9.10;8.20;;;;;;;;;;107028;1254;61176;-83
2023/06/22 11:51:27;;;;;;;9.80;8.70;;;;;;;;;;107005;1252;61247;-83
2023/06/22 11:53:54;;;;;;;8.80;7.90;;;;;;;;;;107040;1253;61321;-84
2023/06/22 11:56:20;;;;;;;11.80;9.40;;;;;;;;;;106988;1253;61332;-83
2023/06/22 11:58:46;;;;;;;13.60;9.20;;;;;;;;;;107101;1255;61304;-83
2023/06/22 12:01:14;;;;;;;10.40;9.20;;;;;;;;;;107007;1253;61351;-83
2023/06/22 12:03:43;;;;;;;11.70;9.30;;;;;;;;;;107236;1251;61309;-83
2023/06/22 12:06:09;;;;;;;10.40;9.10;;;;;;;;;;107653;1250;61198;-83
2023/06/22 12:08:36;;;;;;;13.10;8.80;;;;;;;;;;107152;1251;61228;-83
2023/06/22 12:11:02;;;;;;;12.60;8.70;;;;;;;;;;107061;1251;61258;-84
2023/06/22 12:13:28;;;;;;;11.10;10.00;;;;;;;;;;106947;1251;61254;-83
2023/06/22 12:15:55;;;;;;;12.90;9.10;;;;;;;;;;106984;1250;61233;-83
2023/06/22 12:18:21;;;;;;;10.10;8.90;;;;;;;;;;107222;1252;61241;-84
2023/06/22 12:20:47;;;;;;;10.90;9.20;;;;;;;;;;107021;1250;61258;-84
2023/06/22 12:23:14;;;;;;;9.50;8.60;;;;;;;;;;107051;1251;61271;-84
2023/06/22 12:25:40;;;;;;;11.10;8.60;;;;;;;;;;106993;1251;61272;-85
2023/06/22 12:28:07;;;;;;;10.70;8.80;;;;;;;;;;107128;1250;62394;-84
2023/06/22 12:30:33;;;;;;;10.40;9.30;;;;;;;;;;107101;1254;61289;-84
2023/06/22 12:33:00;;;;;;;8.70;7.60;;;;;;;;;;106974;1251;61175;-84
2023/06/22 12:35:26;;;;;;;11.10;8.70;;;;;;;;;;106954;1255;61352;-83
2023/06/22 12:37:53;;;;;;;8.90;7.80;;;;;;;;;;107113;1251;61266;-83
2023/06/22 12:40:19;;;;;;;10.00;9.00;;;;;;;;;;107049;1253;61239;-84
2023/06/22 12:42:45;;;;;;;9.10;8.00;;;;;;;;;;106991;1251;61329;-84
2023/06/22 12:45:12;;;;;;;9.10;8.30;;;;;;;;;;106928;1253;62398;-83
2023/06/22 12:47:38;;;;;;;11.40;8.00;;;;;;;;;;106967;1253;61320;-84
2023/06/22 12:50:05;;;;;;;12.00;8.60;;;;;;;;;;107122;1251;61257;-84
2023/06/22 12:52:34;;;;;;;10.30;9.20;;;;;;;;;;107076;1253;61245;-83
2023/06/22 12:55:00;;;;;;;10.60;8.90;;;;;;;;;;106999;1251;61328;-84
2023/06/22 12:57:27;;;;;;;12.80;9.70;;;;;;;;;;107076;1253;61186;-83
2023/06/22 12:59:53;;;;;;;12.70;9.80;;;;;;;;;;107048;1251;61108;-83
2023/06/22 13:02:20;;;;;;;13.70;9.80;;;;;;;;;;107056;1253;61240;-83
2023/06/22 13:04:46;;;;;;;10.80;8.90;;;;;;;;;;106973;1252;61250;-83
2023/06/22 13:07:12;;;;;;;9.80;8.80;;;;;;;;;;107020;1254;61251;-83
2023/06/22 13:09:39;;;;;;;10.30;8.50;;;;;;;;;;107132;1251;61335;-83
2023/06/22 13:12:05;;;;;;;9.00;8.00;;;;;;;;;;107403;1251;61293;-83
2023/06/22 13:14:32;;;;;;;9.60;8.70;;;;;;;;;;107337;1251;61060;-83
2023/06/22 13:16:58;;;;;;;8.30;7.50;;;;;;;;;;107411;1253;61270;-83
2023/06/22 13:19:25;;;;;;;10.70;9.10;;;;;;;;;;107769;1251;59250;-83
2023/06/22 13:21:52;;;;;;;;;;;;;;;;;;107393;1253;59429;-83
2023/06/22 13:24:18;;;;;;;8.80;7.90;;;;;;;;;;107142;1251;61237;-83
2023/06/22 13:26:44;;;;;;;9.70;7.90;;;;;;;;;;107086;1251;61286;-83
2023/06/22 13:29:11;;;;;;;11.20;7.80;;;;;;;;;;107092;1252;61220;-83
2023/06/22 13:31:37;;;;;;;12.10;8.70;;;;;;;;;;106995;1251;61384;-84
2023/06/22 13:34:03;;;;;;;9.80;8.10;;;;;;;;;;106988;1253;62286;-83
2023/06/22 13:36:30;;;;;;;11.90;8.60;;;;;;;;;;107113;1250;61389;-83
2023/06/22 13:38:56;;;;;;;10.90;8.70;;;;;;;;;;106959;1251;61334;-83
2023/06/22 13:41:23;;;;;;;10.20;9.20;;;;;;;;;;107080;1251;61199;-83
2023/06/22 13:43:49;;;;;;;10.60;9.60;;;;;;;;;;106851;1253;61368;-84
2023/06/22 13:46:16;;;;;;;9.00;8.00;;;;;;;;;;106987;1254;62626;-84
2023/06/22 13:48:42;;;;;;;15.40;10.60;;;;;;;;;;106968;1254;61218;-84
2023/06/22 13:51:08;;;;;;;10.80;9.70;;;;;;;;;;107081;1253;61328;-84
2023/06/22 13:53:35;;;;;;;10.40;9.30;;;;;;;;;;107000;1254;61356;-84
2023/06/22 13:56:01;;;;;;;10.50;9.40;;;;;;;;;;107024;1253;61375;-84
2023/06/22 13:58:27;;;;;;;13.10;10.70;;;;;;;;;;107155;1255;61224;-84
2023/06/22 14:00:54;;;;;;;9.90;8.90;;;;;;;;;;107139;1250;61112;-84
2023/06/22 14:03:20;;;;;;;12.50;10.30;;;;;;;;;;106981;1253;61341;-84
2023/06/22 14:05:47;;;;;;;12.40;11.20;;;;;;;;;;106972;1256;61183;-84
2023/06/22 14:08:14;;;;;;;13.20;10.80;;;;;;;;;;106981;1254;61392;-84
2023/06/22 14:10:41;;;;;;;11.30;10.10;;;;;;;;;;107031;1255;61276;-84
2023/06/22 14:13:07;;;;;;;13.30;10.50;;;;;;;;;;106998;1251;61299;-84
2023/06/22 14:15:33;;;;;;;9.70;8.80;;;;;;;;;;106954;1251;61029;-84
2023/06/22 14:18:00;;;;;;;9.90;9.00;;;;;;;;;;106771;1255;61098;-84